createdAt,value
2022-08-21T00:01:14.959Z,16.70
2022-08-21T00:21:31.964Z,16.60
2022-08-21T00:25:35.291Z,16.50
2022-08-21T00:29:38.159Z,16.40
2022-08-21T00:33:40.975Z,16.30
2022-08-21T00:37:45.275Z,16.30
2022-08-21T00:41:48.204Z,16.20
2022-08-21T00:45:51.762Z,16.20
2022-08-21T00:49:54.602Z,16.10
2022-08-21T00:54:01.573Z,16.10
2022-08-21T00:58:08.320Z,16.10
2022-08-21T01:02:12.461Z,16.00
2022-08-21T01:06:15.523Z,16.00
2022-08-21T01:22:34.866Z,15.80
2022-08-21T01:26:38.266Z,15.70
2022-08-21T01:30:42.593Z,15.70
2022-08-21T01:34:47.650Z,15.60
2022-08-21T01:38:52.053Z,15.60
2022-08-21T01:42:55.096Z,15.60
2022-08-21T01:47:00.150Z,15.60
2022-08-21T01:51:03.145Z,15.50
2022-08-21T01:55:08.451Z,15.50
2022-08-21T01:59:11.772Z,15.50
2022-08-21T02:03:14.610Z,15.50
2022-08-21T02:07:37.411Z,15.50
2022-08-21T02:11:41.731Z,15.50
2022-08-21T02:15:45.250Z,15.40
2022-08-21T02:19:52.559Z,15.50
2022-08-21T02:23:55.451Z,15.50
2022-08-21T02:28:00.259Z,15.50
2022-08-21T02:32:03.245Z,15.50
2022-08-21T02:36:06.351Z,15.50
2022-08-21T02:40:12.527Z,15.60
2022-08-21T02:44:16.760Z,15.60
2022-08-21T02:48:20.781Z,15.60
2022-08-21T02:52:25.476Z,15.70
2022-08-21T02:56:29.760Z,15.70
2022-08-21T03:00:36.660Z,15.70
2022-08-21T03:04:43.347Z,15.70
2022-08-21T03:08:49.072Z,15.70
2022-08-21T03:12:52.039Z,15.70
2022-08-21T03:16:56.229Z,15.70
2022-08-21T03:20:59.132Z,15.80
2022-08-21T03:25:02.131Z,15.80
2022-08-21T03:29:09.083Z,15.80
2022-08-21T03:33:15.362Z,15.90
2022-08-21T03:37:18.669Z,15.90
2022-08-21T03:41:21.491Z,15.90
2022-08-21T03:45:24.307Z,16.00
2022-08-21T03:49:28.614Z,16.00
2022-08-21T03:53:31.833Z,16.00
2022-08-21T03:57:34.710Z,16.10
2022-08-21T04:01:37.556Z,16.10
2022-08-21T04:05:41.997Z,16.10
2022-08-21T04:09:44.830Z,16.10
2022-08-21T04:13:47.988Z,16.10
2022-08-21T04:17:50.855Z,16.10
2022-08-21T04:21:55.086Z,16.00
2022-08-21T04:25:58.399Z,16.00
2022-08-21T04:30:01.935Z,16.00
2022-08-21T04:34:05.668Z,16.00
2022-08-21T04:38:10.127Z,16.00
2022-08-21T04:42:12.982Z,16.00
2022-08-21T04:46:15.819Z,16.00
2022-08-21T04:50:18.843Z,16.10
2022-08-21T04:54:24.896Z,16.10
2022-08-21T04:58:28.395Z,16.10
2022-08-21T05:02:33.969Z,16.10
2022-08-21T05:06:39.079Z,16.10
2022-08-21T05:10:45.367Z,16.20
2022-08-21T05:14:48.187Z,16.30
2022-08-21T05:18:51.351Z,16.30
2022-08-21T05:22:54.354Z,16.40
2022-08-21T05:26:58.617Z,16.40
2022-08-21T05:31:01.477Z,16.50
2022-08-21T05:35:05.419Z,16.50
2022-08-21T05:39:08.394Z,16.60
2022-08-21T05:43:12.540Z,16.60
2022-08-21T05:47:15.954Z,16.60
2022-08-21T05:51:18.768Z,16.70
2022-08-21T05:55:22.184Z,16.70
2022-08-21T05:59:26.450Z,16.80
2022-08-21T06:03:30.178Z,16.80
2022-08-21T06:07:32.991Z,16.90
2022-08-21T06:11:35.830Z,17.00
2022-08-21T06:19:43.491Z,17.10
2022-08-21T06:23:49.080Z,17.20
2022-08-21T06:27:52.417Z,17.30
2022-08-21T06:31:55.311Z,17.40
2022-08-21T06:35:59.763Z,17.50
2022-08-21T06:40:02.842Z,17.60
2022-08-21T06:44:05.916Z,17.80
2022-08-21T06:48:09.009Z,17.90
2022-08-21T06:52:13.937Z,18.00
2022-08-21T06:56:16.821Z,18.20
2022-08-21T07:00:19.622Z,18.40
2022-08-21T07:04:22.432Z,18.40
2022-08-21T07:08:27.610Z,18.60
2022-08-21T07:12:31.314Z,18.70
2022-08-21T07:16:34.187Z,18.90
2022-08-21T07:20:37.039Z,19.00
2022-08-21T07:24:41.198Z,19.20
2022-08-21T07:28:44.020Z,19.40
2022-08-21T07:32:46.933Z,19.50
2022-08-21T07:36:49.863Z,19.60
2022-08-21T07:44:58.145Z,20.00
2022-08-21T07:49:00.936Z,20.20
2022-08-21T07:53:03.892Z,20.40
2022-08-21T07:57:06.709Z,20.60
2022-08-21T08:01:11.117Z,20.80
2022-08-21T08:05:14.325Z,20.90
2022-08-21T08:09:17.824Z,21.10
2022-08-21T08:13:21.564Z,21.40
2022-08-21T08:17:26.285Z,21.60
2022-08-21T08:21:29.176Z,21.80
2022-08-21T08:25:36.761Z,22.00
2022-08-21T08:29:39.836Z,22.30
2022-08-21T08:33:44.697Z,22.40
2022-08-21T08:37:52.217Z,22.60
2022-08-21T08:41:58.765Z,22.90
2022-08-21T08:46:05.580Z,22.90
2022-08-21T08:50:12.871Z,23.30
2022-08-21T09:26:49.429Z,25.10
2022-08-21T09:30:52.810Z,25.10
2022-08-21T09:35:00.352Z,25.30
2022-08-21T09:39:03.282Z,25.40
2022-08-21T09:43:08.703Z,25.60
2022-08-21T09:47:13.727Z,25.80
2022-08-21T09:51:17.667Z,26.00
2022-08-21T09:55:39.914Z,26.20
2022-08-21T09:59:46.998Z,26.30
2022-08-21T10:03:50.194Z,26.40
2022-08-21T10:07:53.376Z,26.60
2022-08-21T10:12:00.769Z,26.80
2022-08-21T10:16:13.933Z,26.90
2022-08-21T10:20:18.727Z,27.10
2022-08-21T10:24:31.009Z,27.20
2022-08-21T10:28:37.990Z,27.30
2022-08-21T10:33:01.573Z,27.50
2022-08-21T10:37:12.539Z,27.60
2022-08-21T10:41:19.654Z,27.60
2022-08-21T10:45:26.498Z,27.60
2022-08-21T10:49:34.001Z,27.60
2022-08-21T10:53:49.150Z,27.60
2022-08-21T10:57:53.708Z,27.80
2022-08-21T11:02:00.730Z,27.90
2022-08-21T11:06:06.664Z,28.10
2022-08-21T11:10:14.778Z,28.20
2022-08-21T11:14:22.641Z,28.20
2022-08-21T11:18:28.549Z,28.30
2022-08-21T11:22:37.247Z,28.30
2022-08-21T11:26:43.945Z,28.40
2022-08-21T11:30:50.116Z,28.60
2022-08-21T11:34:58.403Z,28.80
2022-08-21T11:39:08.554Z,29.00
2022-08-21T11:43:15.686Z,29.20
2022-08-21T11:47:21.964Z,29.30
2022-08-21T11:51:28.279Z,29.50
2022-08-21T11:55:34.439Z,29.70
2022-08-21T11:59:42.830Z,29.90
2022-08-21T12:03:53.466Z,29.90
2022-08-21T12:08:03.915Z,30.00
2022-08-21T12:12:08.158Z,30.20
2022-08-21T12:16:13.874Z,30.40
2022-08-21T12:20:19.225Z,30.50
2022-08-21T12:24:32.817Z,30.60
2022-08-21T12:28:35.674Z,30.50
2022-08-21T12:32:47.640Z,30.40
2022-08-21T12:36:55.218Z,30.30
2022-08-21T12:40:59.351Z,30.40
2022-08-21T12:45:04.289Z,30.40
2022-08-21T12:49:15.094Z,30.40
2022-08-21T12:53:23.627Z,30.40
2022-08-21T12:57:28.625Z,30.40
2022-08-21T13:01:38.117Z,30.50
2022-08-21T13:05:45.330Z,30.60
2022-08-21T13:09:50.166Z,30.60
2022-08-21T13:13:54.381Z,30.70
2022-08-21T13:18:02.719Z,30.80
2022-08-21T13:22:33.200Z,30.90
2022-08-21T13:26:36.750Z,30.90
2022-08-21T13:30:41.250Z,31.00
2022-08-21T13:34:44.155Z,30.90
2022-08-21T13:38:48.369Z,30.80
2022-08-21T13:42:51.261Z,30.70
2022-08-21T13:46:54.936Z,30.60
2022-08-21T13:50:58.004Z,30.50
2022-08-21T13:55:03.136Z,30.30
2022-08-21T13:59:06.070Z,30.20
2022-08-21T14:03:12.078Z,30.20
2022-08-21T14:07:19.658Z,30.20
2022-08-21T14:11:24.203Z,30.30
2022-08-21T14:15:29.570Z,30.30
2022-08-21T14:19:38.704Z,30.30
2022-08-21T14:23:42.507Z,30.10
2022-08-21T14:27:51.326Z,30.00
2022-08-21T14:31:55.015Z,29.90
2022-08-21T14:35:57.943Z,29.70
2022-08-21T14:40:00.802Z,29.60
2022-08-21T14:44:09.526Z,29.40
2022-08-21T14:48:12.804Z,29.30
2022-08-21T14:52:15.680Z,29.30
2022-08-21T14:56:18.806Z,29.30
2022-08-21T15:00:27.006Z,29.40
2022-08-21T15:04:38.843Z,29.40
2022-08-21T15:08:41.682Z,29.40
2022-08-21T15:12:44.496Z,29.30
2022-08-21T15:16:49.234Z,29.20
2022-08-21T15:20:52.494Z,29.20
2022-08-21T15:24:55.355Z,29.10
2022-08-21T15:28:58.141Z,29.10
2022-08-21T15:33:02.825Z,29.20
2022-08-21T15:37:08.893Z,29.30
2022-08-21T15:41:11.733Z,29.40
2022-08-21T15:45:14.892Z,29.60
2022-08-21T15:49:19.094Z,29.80
2022-08-21T15:53:21.891Z,29.90
2022-08-21T15:57:26.002Z,30.00
2022-08-21T16:01:29.614Z,29.90
2022-08-21T16:05:49.998Z,29.80
2022-08-21T16:09:53.203Z,29.50
2022-08-21T16:13:57.017Z,29.40
2022-08-21T16:18:00.238Z,29.40
2022-08-21T16:22:04.749Z,29.40
2022-08-21T16:26:08.402Z,29.50
2022-08-21T16:30:17.208Z,29.60
2022-08-21T16:34:21.601Z,29.70
2022-08-21T16:38:25.774Z,29.70
2022-08-21T16:42:28.685Z,29.50
2022-08-21T16:46:32.814Z,29.30
2022-08-21T16:50:35.628Z,29.10
2022-08-21T16:54:40.904Z,29.00
2022-08-21T16:58:47.559Z,28.70
2022-08-21T17:02:53.468Z,28.60
2022-08-21T17:06:56.482Z,28.50
2022-08-21T17:11:01.329Z,28.30
2022-08-21T17:15:07.380Z,28.30
2022-08-21T17:19:10.360Z,28.20
2022-08-21T17:23:13.411Z,28.10
2022-08-21T17:27:18.096Z,28.00
2022-08-21T17:31:24.559Z,27.90
2022-08-21T17:35:27.717Z,27.70
2022-08-21T17:39:30.545Z,27.60
2022-08-21T17:43:35.120Z,27.50
2022-08-21T17:47:38.565Z,27.40
2022-08-21T17:51:42.698Z,27.20
2022-08-21T17:55:45.547Z,27.10
2022-08-21T17:59:50.057Z,27.00
2022-08-21T18:03:53.279Z,26.80
2022-08-21T18:07:56.502Z,26.60
2022-08-21T18:12:00.295Z,26.50
2022-08-21T18:16:05.050Z,26.30
2022-08-21T18:20:09.099Z,26.20
2022-08-21T18:24:11.938Z,26.00
2022-08-21T18:28:15.127Z,25.80
2022-08-21T18:32:31.284Z,25.70
2022-08-21T18:36:34.810Z,25.50
2022-08-21T18:40:39.427Z,25.40
2022-08-21T18:44:44.688Z,25.20
2022-08-21T18:48:48.859Z,25.10
2022-08-21T18:52:52.904Z,24.90
2022-08-21T18:56:56.545Z,24.70
2022-08-21T19:01:00.156Z,24.50
2022-08-21T19:05:05.422Z,24.40
2022-08-21T19:09:11.255Z,24.20
2022-08-21T19:13:17.855Z,24.00
2022-08-21T19:17:21.278Z,23.90
2022-08-21T19:21:25.769Z,23.70
2022-08-21T19:29:53.087Z,23.40
2022-08-21T19:34:01.485Z,23.30
2022-08-21T19:38:06.649Z,23.20
2022-08-21T19:42:13.249Z,23.00
2022-08-21T19:46:21.567Z,22.90
2022-08-21T19:50:24.569Z,22.80
2022-08-21T19:54:31.169Z,22.60
2022-08-21T19:58:35.960Z,22.50
2022-08-21T20:02:39.704Z,22.40
2022-08-21T20:06:51.068Z,22.30
2022-08-21T20:10:59.806Z,22.20
2022-08-21T20:15:07.866Z,22.10
2022-08-21T20:19:11.011Z,22.00
2022-08-21T20:23:15.775Z,21.90
2022-08-21T20:27:22.575Z,21.80
2022-08-21T20:31:25.879Z,21.70
2022-08-21T20:35:30.711Z,21.50
2022-08-21T20:39:35.379Z,21.40
2022-08-21T20:43:42.489Z,21.30
2022-08-21T20:47:59.326Z,21.20
2022-08-21T20:52:02.252Z,21.10
2022-08-21T20:56:08.656Z,21.00
2022-08-21T21:00:19.138Z,20.90
2022-08-21T21:04:27.959Z,20.80
2022-08-21T21:08:32.183Z,20.80
2022-08-21T21:12:36.342Z,20.70
2022-08-21T21:16:50.549Z,20.70
2022-08-21T21:20:56.802Z,20.70
2022-08-21T21:25:04.189Z,20.60
2022-08-21T21:29:10.884Z,20.50
2022-08-21T21:33:16.562Z,20.50
2022-08-21T21:37:25.576Z,20.50
2022-08-21T21:41:33.409Z,20.40
2022-08-21T21:45:39.202Z,20.40
2022-08-21T21:49:51.463Z,20.40
2022-08-21T21:53:57.668Z,20.30
2022-08-21T21:58:08.936Z,20.30
2022-08-21T22:02:17.786Z,20.30
2022-08-21T22:06:25.283Z,20.20
2022-08-21T22:10:33.871Z,20.20
2022-08-21T22:14:46.659Z,20.10
2022-08-21T22:18:54.729Z,20.10
2022-08-21T22:22:59.660Z,20.00
2022-08-21T22:27:04.102Z,20.00
2022-08-21T22:31:15.146Z,19.90
2022-08-21T22:35:22.587Z,19.80
2022-08-21T22:39:33.118Z,19.80
2022-08-21T22:43:51.210Z,19.70
2022-08-21T22:47:55.359Z,19.60
2022-08-21T22:52:06.579Z,19.60
2022-08-21T22:56:27.807Z,19.50
2022-08-21T23:00:41.329Z,19.40
2022-08-21T23:04:48.364Z,19.30
2022-08-21T23:08:52.341Z,19.30
2022-08-21T23:13:01.055Z,19.10
2022-08-21T23:17:10.264Z,19.00
2022-08-21T23:21:22.495Z,19.00
2022-08-21T23:25:34.659Z,18.90
2022-08-21T23:29:42.379Z,18.80
2022-08-21T23:33:52.966Z,18.70
2022-08-21T23:37:59.143Z,18.60
2022-08-21T23:42:06.101Z,18.50
2022-08-21T23:46:17.708Z,18.40
2022-08-21T23:50:25.266Z,18.30
2022-08-21T23:54:34.058Z,18.20
2022-08-21T23:58:41.111Z,18.10
